Hovedside
METAR-TAF:

METAR-TAF

Lufthavner :

Léopold Sédar Senghor internasjonale lufthavn

Dakar, Senegal

breddegrad: 14-44N, lengdegrad: 017-30W, høyde over havet: 27 m

Gjeldene værobservasjon

Denne rapporten ble laget for 53 minutter siden, klokken 17:00 UTC
Vind 6 kt fra Sørvest
Temperatur 28°C
Luftfuktighet 70%
Trykk 1012 hPa
Sikt 10 km eller mer
Spredte skyer i en høyde av 1300 ft
Brutte skyer i en høyde av 23000 ft

METAR: GOOY 231700Z 22006KT 9999 SCT013 BKN230 28/22 Q1012

Tid: 17:53 (17:53 UTC)

Varsel

Denne rapporten ble laget for 23 minutter siden, klokken 17:30 UTC
Varsel gyldig fra 23. klokken 18 UTC til 24. klokken 24 UTC
Vind 8 kt fra Vest-sørvest
Sikt 10 km eller mer
Spredte skyer i en høyde av 1300 ft
Midlertidig
fra 24. klokken 02 UTC til 24. klokken 08 UTC
Brutte skyer i en høyde av 1000 ft

TAF: GOOY 231730Z 2318/2424 25008KT 9999 SCT013 TEMPO 2402/2408 BKN010

Værobservasjoner og værvarsel for over 4000 flyplasser (METAR- og TAF-rapporter).

Tilgjengelige stasjoner er representert av de røde og gule prikkene på kartet.

Hold musepekeren over prikken for å se navnet på stasjonen.

Klikk så for å se værobservasjoner og -varsler.

For å forandre kartet kan du klikke på den grønne knappen med svart kryss for å zoome inn, på den grønne knappen med strek for å zoome ut, eller på de grønne pilene for å se tilstøtende kart.


METAR-TAF: